Time,TemperatureF,DewpointF,PressureIn,WindDirection,WindDirectionDegrees,WindSpeedMPH,WindSpeedGustMPH,Humidity,HourlyPrecipIn,Conditions,Clouds,dailyrainin,SoftwareType,DateUTC
2013-02-15 00:00:00,32.3,30.5,30.01,WNW,287,6.0,7.0,93,0.00,,,0.00,Wunderground v.1.15,2013-02-15 06:00:00,
2013-02-15 00:04:00,32.3,30.5,30.02,WNW,297,6.0,7.0,93,0.00,,,0.00,Wunderground v.1.15,2013-02-15 06:04:00,
2013-02-15 00:06:00,32.2,30.7,30.02,NW,304,6.0,7.0,94,0.00,,,0.00,Wunderground v.1.15,2013-02-15 06:06:00,
2013-02-15 00:08:00,32.2,30.7,30.02,NW,304,6.0,7.0,94,0.00,,,0.00,Wunderground v.1.15,2013-02-15 06:08:00,
2013-02-15 00:12:00,32.2,30.7,30.02,WNW,282,6.0,7.0,94,0.00,,,0.00,Wunderground v.1.15,2013-02-15 06:12:00,
2013-02-15 00:16:00,32.1,30.3,30.02,WNW,297,7.0,9.0,93,0.00,,,0.00,Wunderground v.1.15,2013-02-15 06:16:00,
2013-02-15 00:18:00,32.1,30.3,30.02,WNW,290,7.0,9.0,93,0.00,,,0.00,Wunderground v.1.15,2013-02-15 06:18:00,
2013-02-15 00:20:00,32.2,30.4,30.02,WNW,288,8.0,9.0,93,0.00,,,0.00,Wunderground v.1.15,2013-02-15 06:20:00,
2013-02-15 00:22:00,32.2,30.4,30.02,WNW,301,8.0,9.0,93,0.00,,,0.00,Wunderground v.1.15,2013-02-15 06:22:00,
2013-02-15 00:28:00,32.1,30.0,30.02,WNW,301,8.0,10.0,92,0.00,,,0.00,Wunderground v.1.15,2013-02-15 06:28:00,
2013-02-15 00:30:00,32.0,29.9,30.02,WNW,282,8.0,8.0,92,0.00,,,0.00,Wunderground v.1.15,2013-02-15 06:30:00,
2013-02-15 00:36:00,32.0,29.9,30.02,WNW,284,7.0,8.0,92,0.00,,,0.00,Wunderground v.1.15,2013-02-15 06:36:00,
2013-02-15 00:38:00,31.9,29.8,30.02,WNW,295,7.0,8.0,92,0.00,,,0.00,Wunderground v.1.15,2013-02-15 06:38:00,
2013-02-15 00:42:00,31.9,29.8,30.02,NW,306,7.0,10.0,92,0.00,,,0.00,Wunderground v.1.15,2013-02-15 06:42:00,
2013-02-15 00:44:00,31.9,29.6,30.02,WNW,295,7.0,10.0,91,0.00,,,0.00,Wunderground v.1.15,2013-02-15 06:44:00,
2013-02-15 00:48:00,32.0,29.7,30.03,NW,324,7.0,10.0,91,0.00,,,0.00,Wunderground v.1.15,2013-02-15 06:48:00,
2013-02-15 00:49:00,32.0,29.7,30.02,West,281,7.0,8.0,91,0.00,,,0.00,Wunderground v.1.15,2013-02-15 06:49:00,
2013-02-15 00:54:00,32.0,29.7,30.03,WNW,297,8.0,8.0,91,0.00,,,0.00,Wunderground v.1.15,2013-02-15 06:54:00,
2013-02-15 00:58:00,32.0,29.7,30.02,NW,314,8.0,12.0,91,0.00,,,0.00,Wunderground v.1.15,2013-02-15 06:58:00,
2013-02-15 01:00:00,32.0,29.4,30.03,WNW,299,8.0,8.0,90,0.00,,,0.00,Wunderground v.1.15,2013-02-15 07:00:00,
2013-02-15 01:02:00,32.0,29.4,30.03,WNW,293,9.0,11.0,90,0.00,,,0.00,Wunderground v.1.15,2013-02-15 07:02:00,
2013-02-15 01:06:00,32.0,29.1,30.03,WNW,303,9.0,11.0,89,0.00,,,0.00,Wunderground v.1.15,2013-02-15 07:06:00,
2013-02-15 01:08:00,32.0,29.1,30.03,NW,306,9.0,15.0,89,0.00,,,0.00,Wunderground v.1.15,2013-02-15 07:08:00,
2013-02-15 01:10:00,32.0,28.8,30.03,NW,316,10.0,12.0,88,0.00,,,0.00,Wunderground v.1.15,2013-02-15 07:10:00,
2013-02-15 01:12:00,31.9,28.5,30.03,NW,316,10.0,12.0,87,0.00,,,0.00,Wunderground v.1.15,2013-02-15 07:12:00,
2013-02-15 01:13:00,31.9,28.8,30.03,WNW,300,10.0,12.0,88,0.00,,,0.00,Wunderground v.1.15,2013-02-15 07:13:00,
2013-02-15 01:15:00,31.8,28.7,30.03,NW,307,10.0,12.0,88,0.00,,,0.00,Wunderground v.1.15,2013-02-15 07:15:00,
2013-02-15 01:20:00,31.7,28.3,30.03,NW,322,10.0,10.0,87,0.00,,,0.00,Wunderground v.1.15,2013-02-15 07:20:00,
2013-02-15 01:21:00,31.6,28.2,30.04,WNW,297,10.0,10.0,87,0.00,,,0.00,Wunderground v.1.15,2013-02-15 07:21:00,
2013-02-15 01:26:00,31.5,28.1,30.04,WNW,300,11.0,12.0,87,0.00,,,0.00,Wunderground v.1.15,2013-02-15 07:26:00,
2013-02-15 01:28:00,31.4,28.0,30.04,WNW,300,11.0,15.0,87,0.00,,,0.00,Wunderground v.1.15,2013-02-15 07:28:00,
2013-02-15 01:30:00,31.4,28.0,30.04,WNW,287,11.0,12.0,87,0.00,,,0.00,Wunderground v.1.15,2013-02-15 07:30:00,
2013-02-15 01:34:00,31.3,27.9,30.04,NW,312,11.0,12.0,87,0.00,,,0.00,Wunderground v.1.15,2013-02-15 07:34:00,
2013-02-15 01:35:00,31.3,27.9,30.04,WNW,295,11.0,12.0,87,0.00,,,0.00,Wunderground v.1.15,2013-02-15 07:35:00,
2013-02-15 01:40:00,31.2,27.8,30.04,NW,304,10.0,10.0,87,0.00,,,0.00,Wunderground v.1.15,2013-02-15 07:40:00,
2013-02-15 01:42:00,31.2,27.8,30.04,WNW,295,10.0,10.0,87,0.00,,,0.00,Wunderground v.1.15,2013-02-15 07:42:00,
2013-02-15 01:44:00,31.2,27.8,30.05,NW,316,10.0,11.0,87,0.00,,,0.00,Wunderground v.1.15,2013-02-15 07:44:00,
2013-02-15 01:46:00,31.2,27.8,30.05,NW,313,9.0,11.0,87,0.00,,,0.00,Wunderground v.1.15,2013-02-15 07:46:00,
2013-02-15 01:48:00,31.2,27.8,30.05,NW,306,9.0,11.0,87,0.00,,,0.00,Wunderground v.1.15,2013-02-15 07:48:00,
2013-02-15 01:52:00,31.2,27.8,30.05,NW,315,9.0,10.0,87,0.00,,,0.00,Wunderground v.1.15,2013-02-15 07:52:00,
2013-02-15 01:53:00,31.2,27.8,30.05,WNW,302,10.0,10.0,87,0.00,,,0.00,Wunderground v.1.15,2013-02-15 07:53:00,
2013-02-15 01:55:00,31.2,27.8,30.05,NW,310,9.0,13.0,87,0.00,,,0.00,Wunderground v.1.15,2013-02-15 07:55:00,
2013-02-15 01:58:00,31.2,27.8,30.05,North,354,10.0,13.0,87,0.00,,,0.00,Wunderground v.1.15,2013-02-15 07:58:00,
2013-02-15 02:01:00,31.2,27.8,30.05,NW,313,10.0,12.0,87,0.00,,,0.00,Wunderground v.1.15,2013-02-15 08:01:00,
2013-02-15 02:06:00,31.2,27.8,30.05,NW,307,10.0,12.0,87,0.00,,,0.00,Wunderground v.1.15,2013-02-15 08:06:00,
2013-02-15 02:08:00,31.1,27.7,30.05,West,274,9.0,12.0,87,0.00,,,0.00,Wunderground v.1.15,2013-02-15 08:08:00,
2013-02-15 02:10:00,31.1,27.7,30.05,NW,316,9.0,9.0,87,0.00,,,0.00,Wunderground v.1.15,2013-02-15 08:10:00,
2013-02-15 02:14:00,31.1,27.7,30.06,NW,306,9.0,12.0,87,0.00,,,0.00,Wunderground v.1.15,2013-02-15 08:14:00,
2013-02-15 02:16:00,31.1,27.7,30.06,NW,308,9.0,12.0,87,0.00,,,0.00,Wunderground v.1.15,2013-02-15 08:16:00,
2013-02-15 02:18:00,31.1,27.7,30.06,NW,315,9.0,12.0,87,0.00,,,0.00,Wunderground v.1.15,2013-02-15 08:18:00,
2013-02-15 02:19:00,31.1,27.7,30.06,NW,304,9.0,9.0,87,0.00,,,0.00,Wunderground v.1.15,2013-02-15 08:19:00,
2013-02-15 02:21:00,31.1,28.0,30.06,WNW,297,9.0,9.0,88,0.00,,,0.00,Wunderground v.1.15,2013-02-15 08:21:00,
2013-02-15 02:26:00,31.0,27.9,30.06,NW,323,7.0,9.0,88,0.00,,,0.00,Wunderground v.1.15,2013-02-15 08:26:00,
2013-02-15 02:28:00,31.0,27.9,30.06,WNW,301,7.0,9.0,88,0.00,,,0.00,Wunderground v.1.15,2013-02-15 08:28:00,
2013-02-15 02:30:00,31.0,27.9,30.06,NW,326,7.0,7.0,88,0.00,,,0.00,Wunderground v.1.15,2013-02-15 08:30:00,
2013-02-15 02:32:00,31.0,28.1,30.06,NW,311,7.0,7.0,89,0.00,,,0.00,Wunderground v.1.15,2013-02-15 08:32:00,
2013-02-15 02:36:00,31.0,28.1,30.06,NW,326,7.0,7.0,89,0.00,,,0.00,Wunderground v.1.15,2013-02-15 08:36:00,
2013-02-15 02:39:00,31.0,28.1,30.06,WNW,284,7.0,7.0,89,0.00,,,0.00,Wunderground v.1.15,2013-02-15 08:39:00,
2013-02-15 02:42:00,31.0,28.1,30.06,NW,313,8.0,8.0,89,0.00,,,0.00,Wunderground v.1.15,2013-02-15 08:42:00,
2013-02-15 02:44:00,31.0,28.1,30.06,NW,307,8.0,8.0,89,0.00,,,0.00,Wunderground v.1.15,2013-02-15 08:44:00,
2013-02-15 02:48:00,31.0,28.1,30.07,West,281,8.0,8.0,89,0.00,,,0.00,Wunderground v.1.15,2013-02-15 08:48:00,
2013-02-15 02:50:00,31.0,28.1,30.07,WNW,288,8.0,8.0,89,0.00,,,0.00,Wunderground v.1.15,2013-02-15 08:50:00,
2013-02-15 02:52:00,30.9,27.8,30.07,NW,320,8.0,10.0,88,0.00,,,0.00,Wunderground v.1.15,2013-02-15 08:52:00,
2013-02-15 02:54:00,30.9,28.0,30.07,NW,320,8.0,10.0,89,0.00,,,0.00,Wunderground v.1.15,2013-02-15 08:54:00,
2013-02-15 02:56:00,30.9,28.0,30.07,NW,317,7.0,10.0,89,0.00,,,0.00,Wunderground v.1.15,2013-02-15 08:56:00,
2013-02-15 03:00:00,30.8,27.4,30.07,NW,324,8.0,10.0,87,0.00,,,0.00,Wunderground v.1.15,2013-02-15 09:00:00,
2013-02-15 03:02:00,30.8,26.8,30.07,NNW,337,9.0,11.0,85,0.00,,,0.00,Wunderground v.1.15,2013-02-15 09:02:00,
2013-02-15 03:05:00,30.6,26.3,30.07,North,350,11.0,13.0,84,0.00,,,0.00,Wunderground v.1.15,2013-02-15 09:05:00,
2013-02-15 03:11:00,30.3,25.8,30.07,NNW,331,12.0,12.0,83,0.00,,,0.00,Wunderground v.1.15,2013-02-15 09:11:00,
2013-02-15 03:14:00,30.3,26.0,30.07,NW,305,11.0,13.0,84,0.00,,,0.00,Wunderground v.1.15,2013-02-15 09:14:00,
2013-02-15 03:18:00,30.1,25.8,30.07,NW,320,11.0,13.0,84,0.00,,,0.00,Wunderground v.1.15,2013-02-15 09:18:00,
2013-02-15 03:24:00,30.0,25.8,30.08,NW,325,11.0,12.0,84,0.00,,,0.00,Wunderground v.1.15,2013-02-15 09:24:00,
2013-02-15 03:25:00,30.0,25.5,30.08,NNW,330,11.0,12.0,83,0.00,,,0.00,Wunderground v.1.15,2013-02-15 09:25:00,
2013-02-15 03:30:00,29.9,25.4,30.08,NNW,331,12.0,12.0,83,0.00,,,0.00,Wunderground v.1.15,2013-02-15 09:30:00,
2013-02-15 03:36:00,29.8,25.0,30.08,NW,323,11.0,19.0,82,0.00,,,0.00,Wunderground v.1.15,2013-02-15 09:36:00,
2013-02-15 03:38:00,29.7,24.6,30.08,NW,308,11.0,19.0,81,0.00,,,0.00,Wunderground v.1.15,2013-02-15 09:38:00,
2013-02-15 03:40:00,29.7,24.9,30.08,NW,313,11.0,11.0,82,0.00,,,0.00,Wunderground v.1.15,2013-02-15 09:40:00,
2013-02-15 03:42:00,29.7,25.2,30.08,NW,309,11.0,11.0,83,0.00,,,0.00,Wunderground v.1.15,2013-02-15 09:42:00,
2013-02-15 03:45:00,29.7,24.9,30.08,NW,311,12.0,14.0,82,0.00,,,0.00,Wunderground v.1.15,2013-02-15 09:45:00,
2013-02-15 03:48:00,29.6,25.1,30.08,NW,316,11.0,14.0,83,0.00,,,0.00,Wunderground v.1.15,2013-02-15 09:48:00,
2013-02-15 03:51:00,29.5,24.4,30.08,NW,323,13.0,13.0,81,0.00,,,0.00,Wunderground v.1.15,2013-02-15 09:51:00,
2013-02-15 03:58:00,29.3,24.5,30.09,North,4,13.0,18.0,82,0.00,,,0.00,Wunderground v.1.15,2013-02-15 09:58:00,
2013-02-15 04:00:00,29.3,24.5,30.09,NNW,338,13.0,13.0,82,0.00,,,0.00,Wunderground v.1.15,2013-02-15 10:00:00,
2013-02-15 04:02:00,29.3,24.8,30.09,NW,304,12.0,13.0,83,0.00,,,0.00,Wunderground v.1.15,2013-02-15 10:02:00,
2013-02-15 04:05:00,29.1,24.6,30.10,NNW,327,12.0,13.0,83,0.00,,,0.00,Wunderground v.1.15,2013-02-15 10:05:00,
2013-02-15 04:08:00,28.9,24.4,30.10,NNW,329,13.0,13.0,83,0.00,,,0.00,Wunderground v.1.15,2013-02-15 10:08:00,
2013-02-15 04:12:00,28.6,23.8,30.10,NW,320,14.0,17.0,82,0.00,,,0.00,Wunderground v.1.15,2013-02-15 10:12:00,
2013-02-15 04:16:00,28.3,23.5,30.10,NW,326,14.0,17.0,82,0.00,,,0.00,Wunderground v.1.15,2013-02-15 10:16:00,
2013-02-15 04:20:00,28.1,23.6,30.10,NW,323,14.0,14.0,83,0.00,,,0.00,Wunderground v.1.15,2013-02-15 10:20:00,
2013-02-15 04:22:00,28.0,23.2,30.10,NNW,340,14.0,15.0,82,0.00,,,0.00,Wunderground v.1.15,2013-02-15 10:22:00,
2013-02-15 04:26:00,27.8,23.0,30.10,NNW,332,14.0,15.0,82,0.00,,,0.00,Wunderground v.1.15,2013-02-15 10:26:00,
2013-02-15 04:28:00,27.7,22.9,30.11,NNW,331,14.0,15.0,82,0.00,,,0.00,Wunderground v.1.15,2013-02-15 10:28:00,
2013-02-15 04:30:00,27.6,22.8,30.11,NNW,330,15.0,15.0,82,0.00,,,0.00,Wunderground v.1.15,2013-02-15 10:30:00,
2013-02-15 04:32:00,27.5,22.7,30.11,NNW,343,14.0,15.0,82,0.00,,,0.00,Wunderground v.1.15,2013-02-15 10:32:00,
2013-02-15 04:34:00,27.5,22.7,30.11,North,4,14.0,15.0,82,0.00,,,0.00,Wunderground v.1.15,2013-02-15 10:34:00,
2013-02-15 04:38:00,27.3,22.5,30.11,NNW,335,13.0,17.0,82,0.00,,,0.00,Wunderground v.1.15,2013-02-15 10:38:00,
2013-02-15 04:42:00,27.2,22.1,30.11,North,6,13.0,18.0,81,0.00,,,0.00,Wunderground v.1.15,2013-02-15 10:42:00,
2013-02-15 04:44:00,27.1,22.0,30.11,NNW,348,14.0,18.0,81,0.00,,,0.00,Wunderground v.1.15,2013-02-15 10:44:00,
2013-02-15 04:48:00,26.9,21.8,30.12,NNW,335,16.0,18.0,81,0.00,,,0.00,Wunderground v.1.15,2013-02-15 10:48:00,
2013-02-15 04:50:00,26.9,22.1,30.12,NNW,331,15.0,15.0,82,0.00,,,0.00,Wunderground v.1.15,2013-02-15 10:50:00,
2013-02-15 04:52:00,26.8,22.0,30.12,NNW,338,15.0,15.0,82,0.00,,,0.00,Wunderground v.1.15,2013-02-15 10:52:00,
2013-02-15 04:53:00,26.7,21.9,30.12,North,349,15.0,15.0,82,0.00,,,0.00,Wunderground v.1.15,2013-02-15 10:53:00,
2013-02-15 04:58:00,26.7,22.2,30.12,NNW,340,14.0,15.0,83,0.00,,,0.00,Wunderground v.1.15,2013-02-15 10:58:00,
2013-02-15 05:00:00,26.6,21.8,30.12,NNW,346,14.0,15.0,82,0.00,,,0.00,Wunderground v.1.15,2013-02-15 11:00:00,
2013-02-15 05:04:00,26.5,21.7,30.13,NNW,335,15.0,15.0,82,0.00,,,0.00,Wunderground v.1.15,2013-02-15 11:04:00,
2013-02-15 05:06:00,26.4,21.7,30.13,NNW,335,15.0,15.0,82,0.00,,,0.00,Wunderground v.1.15,2013-02-15 11:06:00,
2013-02-15 05:08:00,26.3,21.6,30.13,North,349,15.0,20.0,82,0.00,,,0.00,Wunderground v.1.15,2013-02-15 11:08:00,
2013-02-15 05:14:00,26.1,21.4,30.13,North,6,14.0,16.0,82,0.00,,,0.00,Wunderground v.1.15,2013-02-15 11:14:00,
2013-02-15 05:16:00,26.1,21.6,30.13,North,351,13.0,16.0,83,0.00,,,0.00,Wunderground v.1.15,2013-02-15 11:16:00,
2013-02-15 05:20:00,25.9,20.6,30.13,NW,316,13.0,13.0,80,0.00,,,0.00,Wunderground v.1.15,2013-02-15 11:20:00,
2013-02-15 05:22:00,25.9,20.6,30.14,NNW,342,12.0,13.0,80,0.00,,,0.00,Wunderground v.1.15,2013-02-15 11:22:00,
2013-02-15 05:23:00,25.8,20.5,30.14,NNW,329,13.0,13.0,80,0.00,,,0.00,Wunderground v.1.15,2013-02-15 11:23:00,
2013-02-15 05:30:00,25.6,20.9,30.14,NNW,331,12.0,12.0,82,0.00,,,0.00,Wunderground v.1.15,2013-02-15 11:30:00,
2013-02-15 05:32:00,25.5,20.5,30.14,NW,320,13.0,13.0,81,0.00,,,0.00,Wunderground v.1.15,2013-02-15 11:32:00,
2013-02-15 05:36:00,25.2,20.2,30.14,NNW,347,13.0,13.0,81,0.00,,,0.00,Wunderground v.1.15,2013-02-15 11:36:00,
2013-02-15 05:42:00,24.5,18.9,30.14,NNE,20,14.0,17.0,79,0.00,,,0.00,Wunderground v.1.15,2013-02-15 11:42:00,
2013-02-15 05:44:00,24.3,18.4,30.14,North,8,15.0,17.0,78,0.00,,,0.00,Wunderground v.1.15,2013-02-15 11:44:00,
2013-02-15 05:48:00,23.9,17.4,30.15,NNW,338,16.0,20.0,76,0.00,,,0.00,Wunderground v.1.15,2013-02-15 11:48:00,
2013-02-15 05:50:00,23.7,16.9,30.15,NW,319,17.0,19.0,75,0.00,,,0.00,Wunderground v.1.15,2013-02-15 11:50:00,
2013-02-15 05:52:00,23.5,16.7,30.15,NNW,342,17.0,19.0,75,0.00,,,0.00,Wunderground v.1.15,2013-02-15 11:52:00,
2013-02-15 05:56:00,23.1,16.7,30.15,NW,323,16.0,19.0,76,0.00,,,0.00,Wunderground v.1.15,2013-02-15 11:56:00,
2013-02-15 05:58:00,23.0,16.6,30.15,North,355,16.0,19.0,76,0.00,,,0.00,Wunderground v.1.15,2013-02-15 11:58:00,
2013-02-15 06:02:00,22.8,16.4,30.15,NW,324,16.0,18.0,76,0.00,,,0.00,Wunderground v.1.15,2013-02-15 12:02:00,
2013-02-15 06:08:00,22.4,14.7,30.16,NW,324,18.0,22.0,72,0.00,,,0.00,Wunderground v.1.15,2013-02-15 12:08:00,
2013-02-15 06:10:00,22.3,14.6,30.16,North,6,18.0,18.0,72,0.00,,,0.00,Wunderground v.1.15,2013-02-15 12:10:00,
2013-02-15 06:14:00,22.1,14.4,30.16,NW,319,18.0,23.0,72,0.00,,,0.00,Wunderground v.1.15,2013-02-15 12:14:00,
2013-02-15 06:18:00,22.0,14.7,30.16,North,4,17.0,23.0,73,0.00,,,0.00,Wunderground v.1.15,2013-02-15 12:18:00,
2013-02-15 06:19:00,22.0,14.7,30.16,NW,325,16.0,16.0,73,0.00,,,0.00,Wunderground v.1.15,2013-02-15 12:19:00,
2013-02-15 06:24:00,21.9,14.6,30.16,NNW,338,15.0,16.0,73,0.00,,,0.00,Wunderground v.1.15,2013-02-15 12:24:00,
2013-02-15 06:25:00,22.0,14.7,30.16,NNW,335,14.0,16.0,73,0.00,,,0.00,Wunderground v.1.15,2013-02-15 12:25:00,
2013-02-15 06:28:00,21.9,14.3,30.16,NNW,331,15.0,20.0,72,0.00,,,0.00,Wunderground v.1.15,2013-02-15 12:28:00,
2013-02-15 06:34:00,21.9,15.2,30.17,NNW,329,16.0,19.0,75,0.00,,,0.00,Wunderground v.1.15,2013-02-15 12:34:00,
2013-02-15 06:36:00,21.9,15.2,30.17,NW,326,16.0,19.0,75,0.00,,,0.00,Wunderground v.1.15,2013-02-15 12:36:00,
2013-02-15 06:38:00,21.9,15.2,30.17,NNW,337,15.0,19.0,75,0.00,,,0.00,Wunderground v.1.15,2013-02-15 12:38:00,
2013-02-15 06:41:00,21.8,14.5,30.17,NNW,338,14.0,19.0,73,0.00,,,0.00,Wunderground v.1.15,2013-02-15 12:41:00,
2013-02-15 06:44:00,21.8,14.8,30.17,NNW,342,14.0,19.0,74,0.00,,,0.00,Wunderground v.1.15,2013-02-15 12:44:00,
2013-02-15 06:50:00,21.8,15.1,30.17,NW,326,14.0,14.0,75,0.00,,,0.00,Wunderground v.1.15,2013-02-15 12:50:00,
2013-02-15 06:52:00,21.8,15.1,30.17,NNW,331,14.0,14.0,75,0.00,,,0.00,Wunderground v.1.15,2013-02-15 12:52:00,
2013-02-15 06:56:00,21.7,15.0,30.17,NNW,335,13.0,16.0,75,0.00,,,0.00,Wunderground v.1.15,2013-02-15 12:56:00,
2013-02-15 06:58:00,21.6,14.6,30.18,NNW,340,13.0,16.0,74,0.00,,,0.00,Wunderground v.1.15,2013-02-15 12:58:00,
2013-02-15 06:59:00,21.7,14.7,30.18,NNW,328,14.0,14.0,74,0.00,,,0.00,Wunderground v.1.15,2013-02-15 12:59:00,
2013-02-15 07:02:00,21.7,14.7,30.18,NW,322,14.0,19.0,74,0.00,,,0.00,Wunderground v.1.15,2013-02-15 13:02:00,
2013-02-15 07:04:00,21.8,15.1,30.18,NNW,329,15.0,19.0,75,0.00,,,0.00,Wunderground v.1.15,2013-02-15 13:04:00,
2013-02-15 07:05:00,21.9,14.9,30.18,NNW,328,16.0,19.0,74,0.00,,,0.00,Wunderground v.1.15,2013-02-15 13:05:00,
2013-02-15 07:08:00,22.0,15.0,30.18,NW,314,16.0,19.0,74,0.00,,,0.00,Wunderground v.1.15,2013-02-15 13:08:00,
2013-02-15 07:10:00,22.0,15.3,30.18,NW,324,15.0,15.0,75,0.00,,,0.00,Wunderground v.1.15,2013-02-15 13:10:00,
2013-02-15 07:12:00,22.0,15.3,30.18,NW,316,14.0,16.0,75,0.00,,,0.00,Wunderground v.1.15,2013-02-15 13:12:00,
2013-02-15 07:16:00,22.0,15.3,30.18,NNW,335,13.0,17.0,75,0.00,,,0.00,Wunderground v.1.15,2013-02-15 13:16:00,
2013-02-15 07:22:00,22.0,14.7,30.18,NW,309,14.0,18.0,73,0.00,,,0.00,Wunderground v.1.15,2013-02-15 13:22:00,
2013-02-15 07:24:00,22.0,14.7,30.19,NNW,338,15.0,18.0,73,0.00,,,0.00,Wunderground v.1.15,2013-02-15 13:24:00,
2013-02-15 07:26:00,22.1,15.1,30.19,NNW,328,15.0,18.0,74,0.00,,,0.00,Wunderground v.1.15,2013-02-15 13:26:00,
2013-02-15 07:28:00,22.1,15.4,30.19,NNW,338,15.0,18.0,75,0.00,,,0.00,Wunderground v.1.15,2013-02-15 13:28:00,
2013-02-15 07:30:00,22.1,15.1,30.19,NNW,338,15.0,15.0,74,0.00,,,0.00,Wunderground v.1.15,2013-02-15 13:30:00,
2013-02-15 07:34:00,22.2,15.5,30.19,NNW,340,13.0,15.0,75,0.00,,,0.00,Wunderground v.1.15,2013-02-15 13:34:00,
2013-02-15 07:36:00,22.2,15.2,30.19,NNW,346,13.0,15.0,74,0.00,,,0.00,Wunderground v.1.15,2013-02-15 13:36:00,
2013-02-15 07:38:00,22.3,15.3,30.19,NNW,329,13.0,15.0,74,0.00,,,0.00,Wunderground v.1.15,2013-02-15 13:38:00,
2013-02-15 07:40:00,22.3,15.3,30.19,NNW,347,14.0,14.0,74,0.00,,,0.00,Wunderground v.1.15,2013-02-15 13:40:00,
2013-02-15 07:42:00,22.3,15.3,30.19,NNW,330,14.0,14.0,74,0.00,,,0.00,Wunderground v.1.15,2013-02-15 13:42:00,
2013-02-15 07:43:00,22.4,15.4,30.20,NNW,342,14.0,14.0,74,0.00,,,0.00,Wunderground v.1.15,2013-02-15 13:43:00,
2013-02-15 07:48:00,22.5,15.5,30.20,NNW,335,13.0,14.0,74,0.00,,,0.00,Wunderground v.1.15,2013-02-15 13:48:00,
2013-02-15 07:50:00,22.5,15.8,30.20,NW,324,12.0,12.0,75,0.00,,,0.00,Wunderground v.1.15,2013-02-15 13:50:00,
2013-02-15 07:52:00,22.6,15.2,30.20,NNW,330,12.0,14.0,73,0.00,,,0.00,Wunderground v.1.15,2013-02-15 13:52:00,
2013-02-15 07:54:00,22.6,15.2,30.20,NNW,346,12.0,14.0,73,0.00,,,0.00,Wunderground v.1.15,2013-02-15 13:54:00,
2013-02-15 07:58:00,22.5,15.1,30.20,NW,323,13.0,15.0,73,0.00,,,0.00,Wunderground v.1.15,2013-02-15 13:58:00,
2013-02-15 08:00:00,22.5,15.1,30.21,NW,320,13.0,13.0,73,0.00,,,0.00,Wunderground v.1.15,2013-02-15 14:00:00,
2013-02-15 08:02:00,22.6,15.2,30.21,NNW,341,13.0,13.0,73,0.00,,,0.00,Wunderground v.1.15,2013-02-15 14:02:00,
2013-02-15 08:08:00,23.0,15.9,30.21,NNW,328,11.0,13.0,74,0.00,,,0.00,Wunderground v.1.15,2013-02-15 14:08:00,
2013-02-15 08:10:00,23.1,15.7,30.21,NW,321,11.0,13.0,73,0.00,,,0.00,Wunderground v.1.15,2013-02-15 14:10:00,
2013-02-15 08:12:00,23.2,15.8,30.21,NW,311,11.0,13.0,73,0.00,,,0.00,Wunderground v.1.15,2013-02-15 14:12:00,
2013-02-15 08:14:00,23.3,15.9,30.21,NNW,348,11.0,13.0,73,0.00,,,0.00,Wunderground v.1.15,2013-02-15 14:14:00,
2013-02-15 08:18:00,23.3,15.6,30.22,NW,325,11.0,14.0,72,0.00,,,0.00,Wunderground v.1.15,2013-02-15 14:18:00,
2013-02-15 08:20:00,23.2,15.2,30.21,NW,326,11.0,17.0,71,0.00,,,0.00,Wunderground v.1.15,2013-02-15 14:20:00,
2013-02-15 08:25:00,23.2,15.5,30.22,NNW,337,11.0,17.0,72,0.00,,,0.00,Wunderground v.1.15,2013-02-15 14:25:00,
2013-02-15 08:28:00,23.3,15.6,30.22,North,5,10.0,17.0,72,0.00,,,0.00,Wunderground v.1.15,2013-02-15 14:28:00,
2013-02-15 08:34:00,23.4,15.7,30.22,NW,318,9.0,10.0,72,0.00,,,0.00,Wunderground v.1.15,2013-02-15 14:34:00,
2013-02-15 08:36:00,23.5,15.8,30.22,NW,315,8.0,10.0,72,0.00,,,0.00,Wunderground v.1.15,2013-02-15 14:36:00,
2013-02-15 08:39:00,23.7,16.0,30.22,NNW,335,8.0,8.0,72,0.00,,,0.00,Wunderground v.1.15,2013-02-15 14:39:00,
2013-02-15 08:42:00,23.8,15.8,30.22,NNW,340,8.0,11.0,71,0.00,,,0.00,Wunderground v.1.15,2013-02-15 14:42:00,
2013-02-15 08:45:00,23.7,15.3,30.22,NNW,331,9.0,11.0,70,0.00,,,0.00,Wunderground v.1.15,2013-02-15 14:45:00,
2013-02-15 08:48:00,23.6,15.6,30.22,NNW,327,8.0,11.0,71,0.00,,,0.00,Wunderground v.1.15,2013-02-15 14:48:00,
2013-02-15 08:50:00,23.5,15.1,30.22,NW,308,9.0,9.0,70,0.00,,,0.00,Wunderground v.1.15,2013-02-15 14:50:00,
2013-02-15 08:54:00,23.9,15.5,30.23,NW,310,9.0,12.0,70,0.00,,,0.00,Wunderground v.1.15,2013-02-15 14:54:00,
2013-02-15 08:56:00,24.0,15.6,30.23,NW,323,9.0,12.0,70,0.00,,,0.00,Wunderground v.1.15,2013-02-15 14:56:00,
2013-02-15 09:02:00,24.6,16.5,30.23,NW,305,9.0,10.0,71,0.00,,,0.00,Wunderground v.1.15,2013-02-15 15:02:00,
2013-02-15 09:05:00,24.7,16.3,30.23,North,1,9.0,10.0,70,0.00,,,0.00,Wunderground v.1.15,2013-02-15 15:05:00,
2013-02-15 09:08:00,24.8,16.1,30.22,NNW,331,9.0,10.0,69,0.00,,,0.00,Wunderground v.1.15,2013-02-15 15:08:00,
2013-02-15 09:12:00,25.0,15.6,30.23,NNW,333,9.0,10.0,67,0.00,,,0.00,Wunderground v.1.15,2013-02-15 15:12:00,
2013-02-15 09:14:00,25.0,16.3,30.23,NW,323,9.0,10.0,69,0.00,,,0.00,Wunderground v.1.15,2013-02-15 15:14:00,
2013-02-15 09:16:00,25.0,15.6,30.23,NW,317,9.0,10.0,67,0.00,,,0.00,Wunderground v.1.15,2013-02-15 15:16:00,
2013-02-15 09:19:00,25.0,15.9,30.23,NNW,338,9.0,9.0,68,0.00,,,0.00,Wunderground v.1.15,2013-02-15 15:19:00,
2013-02-15 09:22:00,25.3,16.2,30.23,NW,320,9.0,11.0,68,0.00,,,0.00,Wunderground v.1.15,2013-02-15 15:22:00,
2013-02-15 09:28:00,25.4,16.3,30.23,NW,316,9.0,11.0,68,0.00,,,0.00,Wunderground v.1.15,2013-02-15 15:28:00,
2013-02-15 09:30:00,25.5,17.1,30.23,WNW,302,8.0,8.0,70,0.00,,,0.00,Wunderground v.1.15,2013-02-15 15:30:00,
2013-02-15 09:33:00,25.6,16.2,30.23,WNW,301,9.0,10.0,67,0.00,,,0.00,Wunderground v.1.15,2013-02-15 15:33:00,
2013-02-15 09:36:00,25.5,16.1,30.23,NW,310,9.0,10.0,67,0.00,,,0.00,Wunderground v.1.15,2013-02-15 15:36:00,
2013-02-15 09:38:00,25.3,15.5,30.23,NW,312,9.0,10.0,66,0.00,,,0.00,Wunderground v.1.15,2013-02-15 15:38:00,
2013-02-15 09:39:00,25.5,16.1,30.23,WNW,297,9.0,10.0,67,0.00,,,0.00,Wunderground v.1.15,2013-02-15 15:39:00,
2013-02-15 09:41:00,25.5,15.7,30.23,NNW,332,9.0,15.0,66,0.00,,,0.00,Wunderground v.1.15,2013-02-15 15:41:00,
2013-02-15 09:44:00,25.6,16.2,30.23,West,276,10.0,15.0,67,0.00,,,0.00,Wunderground v.1.15,2013-02-15 15:44:00,
2013-02-15 09:46:00,25.8,16.3,30.23,NNW,345,9.0,15.0,67,0.00,,,0.00,Wunderground v.1.15,2013-02-15 15:46:00,
2013-02-15 09:48:00,25.9,16.1,30.23,NNW,346,9.0,15.0,66,0.00,,,0.00,Wunderground v.1.15,2013-02-15 15:48:00,
2013-02-15 09:52:00,25.8,16.3,30.23,NW,308,9.0,9.0,67,0.00,,,0.00,Wunderground v.1.15,2013-02-15 15:52:00,
2013-02-15 09:54:00,25.8,16.7,30.23,West,281,8.0,9.0,68,0.00,,,0.00,Wunderground v.1.15,2013-02-15 15:54:00,
2013-02-15 09:58:00,26.0,16.5,30.23,WNW,302,8.0,11.0,67,0.00,,,0.00,Wunderground v.1.15,2013-02-15 15:58:00,
2013-02-15 09:59:00,26.0,16.5,30.23,WNW,291,8.0,11.0,67,0.00,,,0.00,Wunderground v.1.15,2013-02-15 15:59:00,
2013-02-15 10:02:00,26.0,16.2,30.23,WNW,294,8.0,11.0,66,0.00,,,0.00,Wunderground v.1.15,2013-02-15 16:02:00,
2013-02-15 10:08:00,26.1,16.3,30.23,NW,307,10.0,11.0,66,0.00,,,0.00,Wunderground v.1.15,2013-02-15 16:08:00,
2013-02-15 10:10:00,26.1,15.9,30.23,WNW,285,10.0,10.0,65,0.00,,,0.00,Wunderground v.1.15,2013-02-15 16:10:00,
2013-02-15 10:12:00,26.1,15.9,30.23,NW,323,10.0,10.0,65,0.00,,,0.00,Wunderground v.1.15,2013-02-15 16:12:00,
2013-02-15 10:16:00,26.2,16.0,30.23,NW,306,10.0,11.0,65,0.00,,,0.00,Wunderground v.1.15,2013-02-15 16:16:00,
2013-02-15 10:18:00,26.3,16.1,30.23,NNW,338,10.0,11.0,65,0.00,,,0.00,Wunderground v.1.15,2013-02-15 16:18:00,
2013-02-15 10:20:00,26.5,16.7,30.23,NW,324,9.0,9.0,66,0.00,,,0.00,Wunderground v.1.15,2013-02-15 16:20:00,
2013-02-15 10:22:00,26.8,17.3,30.23,WNW,292,9.0,12.0,67,0.00,,,0.00,Wunderground v.1.15,2013-02-15 16:22:00,
2013-02-15 10:28:00,27.0,16.1,30.23,NW,307,9.0,12.0,63,0.00,,,0.00,Wunderground v.1.15,2013-02-15 16:28:00,
2013-02-15 10:30:00,26.9,15.6,30.23,NW,320,9.0,9.0,62,0.00,,,0.00,Wunderground v.1.15,2013-02-15 16:30:00,
2013-02-15 10:34:00,26.7,15.4,30.23,NW,314,10.0,10.0,62,0.00,,,0.00,Wunderground v.1.15,2013-02-15 16:34:00,
2013-02-15 10:38:00,26.7,16.1,30.23,NW,307,9.0,10.0,64,0.00,,,0.00,Wunderground v.1.15,2013-02-15 16:38:00,
2013-02-15 10:40:00,26.8,15.9,30.23,WNW,293,9.0,14.0,63,0.00,,,0.00,Wunderground v.1.15,2013-02-15 16:40:00,
2013-02-15 10:44:00,27.0,16.4,30.23,West,278,9.0,14.0,64,0.00,,,0.00,Wunderground v.1.15,2013-02-15 16:44:00,
2013-02-15 10:46:00,27.1,16.5,30.23,WNW,302,9.0,14.0,64,0.00,,,0.00,Wunderground v.1.15,2013-02-15 16:46:00,
2013-02-15 10:52:00,27.2,16.6,30.23,NNW,330,9.0,12.0,64,0.00,,,0.00,Wunderground v.1.15,2013-02-15 16:52:00,
2013-02-15 10:56:00,27.5,16.2,30.23,NW,309,9.0,12.0,62,0.00,,,0.00,Wunderground v.1.15,2013-02-15 16:56:00,
2013-02-15 10:58:00,27.5,17.3,30.23,WNW,295,9.0,12.0,65,0.00,,,0.00,Wunderground v.1.15,2013-02-15 16:58:00,
2013-02-15 11:04:00,27.5,17.3,30.23,NW,305,9.0,12.0,65,0.00,,,0.00,Wunderground v.1.15,2013-02-15 17:04:00,
2013-02-15 11:06:00,27.7,17.8,30.23,NW,308,9.0,13.0,66,0.00,,,0.00,Wunderground v.1.15,2013-02-15 17:06:00,
2013-02-15 11:08:00,27.7,16.7,30.23,West,277,9.0,13.0,63,0.00,,,0.00,Wunderground v.1.15,2013-02-15 17:08:00,
2013-02-15 11:09:00,27.7,17.5,30.23,WNW,301,9.0,10.0,65,0.00,,,0.00,Wunderground v.1.15,2013-02-15 17:09:00,
2013-02-15 11:14:00,27.9,18.4,30.23,WNW,293,9.0,10.0,67,0.00,,,0.00,Wunderground v.1.15,2013-02-15 17:14:00,
2013-02-15 11:16:00,28.1,17.8,30.23,WNW,295,9.0,10.0,65,0.00,,,0.00,Wunderground v.1.15,2013-02-15 17:16:00,
2013-02-15 11:18:00,28.2,17.6,30.23,WNW,285,8.0,12.0,64,0.00,,,0.00,Wunderground v.1.15,2013-02-15 17:18:00,
2013-02-15 11:22:00,28.1,17.1,30.23,WNW,288,9.0,11.0,63,0.00,,,0.00,Wunderground v.1.15,2013-02-15 17:22:00,
2013-02-15 11:28:00,28.1,16.7,30.23,NW,324,9.0,12.0,62,0.00,,,0.00,Wunderground v.1.15,2013-02-15 17:28:00,
2013-02-15 11:32:00,27.9,16.6,30.23,NW,311,10.0,12.0,62,0.00,,,0.00,Wunderground v.1.15,2013-02-15 17:32:00,
2013-02-15 11:34:00,27.9,16.6,30.23,WNW,292,10.0,12.0,62,0.00,,,0.00,Wunderground v.1.15,2013-02-15 17:34:00,
2013-02-15 11:36:00,27.8,16.5,30.23,NW,326,10.0,12.0,62,0.00,,,0.00,Wunderground v.1.15,2013-02-15 17:36:00,
2013-02-15 11:39:00,28.0,17.0,30.23,NW,319,11.0,11.0,63,0.00,,,0.00,Wunderground v.1.15,2013-02-15 17:39:00,
2013-02-15 11:41:00,28.0,16.6,30.23,NW,312,10.0,11.0,62,0.00,,,0.00,Wunderground v.1.15,2013-02-15 17:41:00,
2013-02-15 11:44:00,28.2,17.6,30.23,WSW,246,9.0,11.0,64,0.00,,,0.00,Wunderground v.1.15,2013-02-15 17:44:00,
2013-02-15 11:50:00,28.6,17.6,30.23,WNW,303,8.0,8.0,63,0.00,,,0.00,Wunderground v.1.15,2013-02-15 17:50:00,
2013-02-15 11:52:00,28.5,16.7,30.23,NW,306,9.0,11.0,61,0.00,,,0.00,Wunderground v.1.15,2013-02-15 17:52:00,
2013-02-15 11:56:00,28.5,17.5,30.23,WNW,290,10.0,12.0,63,0.00,,,0.00,Wunderground v.1.15,2013-02-15 17:56:00,
2013-02-15 11:58:00,28.4,16.7,30.23,NW,316,10.0,12.0,61,0.00,,,0.00,Wunderground v.1.15,2013-02-15 17:58:00,
2013-02-15 12:02:00,28.4,17.0,30.23,West,274,10.0,14.0,62,0.00,,,0.00,Wunderground v.1.15,2013-02-15 18:02:00,
2013-02-15 12:04:00,28.5,17.5,30.23,WNW,287,11.0,14.0,63,0.00,,,0.00,Wunderground v.1.15,2013-02-15 18:04:00,
2013-02-15 12:06:00,28.5,17.1,30.23,WNW,303,11.0,14.0,62,0.00,,,0.00,Wunderground v.1.15,2013-02-15 18:06:00,
2013-02-15 12:08:00,28.6,18.0,30.23,WNW,298,11.0,14.0,64,0.00,,,0.00,Wunderground v.1.15,2013-02-15 18:08:00,
2013-02-15 12:10:00,28.8,17.0,30.23,NW,324,11.0,11.0,61,0.00,,,0.00,Wunderground v.1.15,2013-02-15 18:10:00,
2013-02-15 12:13:00,29.0,18.3,30.22,WNW,297,10.0,11.0,64,0.00,,,0.00,Wunderground v.1.15,2013-02-15 18:13:00,
2013-02-15 12:15:00,29.1,17.7,30.22,WNW,288,10.0,11.0,62,0.00,,,0.00,Wunderground v.1.15,2013-02-15 18:15:00,
2013-02-15 12:22:00,29.3,17.9,30.22,NNW,333,7.0,10.0,62,0.00,,,0.00,Wunderground v.1.15,2013-02-15 18:22:00,
2013-02-15 12:24:00,29.3,17.9,30.22,NW,309,8.0,10.0,62,0.00,,,0.00,Wunderground v.1.15,2013-02-15 18:24:00,
2013-02-15 12:28:00,29.7,18.3,30.22,WNW,302,9.0,10.0,62,0.00,,,0.00,Wunderground v.1.15,2013-02-15 18:28:00,
2013-02-15 12:30:00,29.6,17.0,30.22,NW,320,9.0,9.0,59,0.00,,,0.00,Wunderground v.1.15,2013-02-15 18:30:00,
2013-02-15 12:32:00,29.7,17.9,30.22,WNW,288,9.0,9.0,61,0.00,,,0.00,Wunderground v.1.15,2013-02-15 18:32:00,
2013-02-15 12:34:00,29.7,17.9,30.22,West,271,8.0,9.0,61,0.00,,,0.00,Wunderground v.1.15,2013-02-15 18:34:00,
2013-02-15 12:40:00,29.8,18.0,30.21,WNW,301,8.0,9.0,61,0.00,,,0.00,Wunderground v.1.15,2013-02-15 18:40:00,
2013-02-15 12:41:00,29.7,17.5,30.21,West,281,9.0,9.0,60,0.00,,,0.00,Wunderground v.1.15,2013-02-15 18:41:00,
2013-02-15 12:46:00,29.7,17.1,30.21,WNW,283,9.0,9.0,59,0.00,,,0.00,Wunderground v.1.15,2013-02-15 18:46:00,
2013-02-15 12:50:00,29.6,17.0,30.21,WSW,249,9.0,9.0,59,0.00,,,0.00,Wunderground v.1.15,2013-02-15 18:50:00,
2013-02-15 12:52:00,29.6,17.8,30.21,WNW,301,9.0,11.0,61,0.00,,,0.00,Wunderground v.1.15,2013-02-15 18:52:00,
2013-02-15 12:56:00,29.8,17.6,30.21,WNW,295,9.0,11.0,60,0.00,,,0.00,Wunderground v.1.15,2013-02-15 18:56:00,
2013-02-15 12:58:00,29.8,16.4,30.21,WNW,293,9.0,11.0,57,0.00,,,0.00,Wunderground v.1.15,2013-02-15 18:58:00,
2013-02-15 13:02:00,29.9,16.1,30.21,West,274,9.0,12.0,56,0.00,,,0.00,Wunderground v.1.15,2013-02-15 19:02:00,
2013-02-15 13:06:00,29.8,16.4,30.21,WNW,284,9.0,12.0,57,0.00,,,0.00,Wunderground v.1.15,2013-02-15 19:06:00,
2013-02-15 13:08:00,29.9,16.9,30.21,WNW,290,9.0,15.0,58,0.00,,,0.00,Wunderground v.1.15,2013-02-15 19:08:00,
2013-02-15 13:10:00,29.9,17.3,30.21,West,264,9.0,11.0,59,0.00,,,0.00,Wunderground v.1.15,2013-02-15 19:10:00,
2013-02-15 13:11:00,30.0,16.2,30.20,WNW,301,10.0,12.0,56,0.00,,,0.00,Wunderground v.1.15,2013-02-15 19:11:00,
2013-02-15 13:14:00,30.0,16.6,30.20,West,274,10.0,12.0,57,0.00,,,0.00,Wunderground v.1.15,2013-02-15 19:14:00,
2013-02-15 13:18:00,30.1,16.7,30.20,WNW,297,10.0,12.0,57,0.00,,,0.00,Wunderground v.1.15,2013-02-15 19:18:00,
2013-02-15 13:23:00,30.2,17.2,30.20,NW,312,9.0,10.0,58,0.00,,,0.00,Wunderground v.1.15,2013-02-15 19:23:00,
2013-02-15 13:26:00,30.3,16.9,30.20,NW,314,9.0,10.0,57,0.00,,,0.00,Wunderground v.1.15,2013-02-15 19:26:00,
2013-02-15 13:30:00,30.4,17.4,30.20,WNW,297,9.0,11.0,58,0.00,,,0.00,Wunderground v.1.15,2013-02-15 19:30:00,
2013-02-15 13:32:00,30.4,17.8,30.20,WNW,290,10.0,12.0,59,0.00,,,0.00,Wunderground v.1.15,2013-02-15 19:32:00,
2013-02-15 13:36:00,30.5,17.5,30.20,WNW,284,10.0,12.0,58,0.00,,,0.00,Wunderground v.1.15,2013-02-15 19:36:00,
2013-02-15 13:38:00,30.6,17.2,30.20,WSW,255,9.0,12.0,57,0.00,,,0.00,Wunderground v.1.15,2013-02-15 19:38:00,
2013-02-15 13:42:00,30.7,18.4,30.20,WNW,297,8.0,11.0,60,0.00,,,0.00,Wunderground v.1.15,2013-02-15 19:42:00,
2013-02-15 13:48:00,30.6,17.6,30.20,NW,307,9.0,11.0,58,0.00,,,0.00,Wunderground v.1.15,2013-02-15 19:48:00,
2013-02-15 13:52:00,30.8,17.3,30.20,WNW,298,9.0,10.0,57,0.00,,,0.00,Wunderground v.1.15,2013-02-15 19:52:00,
2013-02-15 13:54:00,30.5,17.1,30.20,WNW,283,9.0,10.0,57,0.00,,,0.00,Wunderground v.1.15,2013-02-15 19:54:00,
2013-02-15 13:56:00,30.4,17.0,30.20,WNW,297,9.0,10.0,57,0.00,,,0.00,Wunderground v.1.15,2013-02-15 19:56:00,
2013-02-15 13:58:00,30.4,16.1,30.20,NW,320,8.0,10.0,55,0.00,,,0.00,Wunderground v.1.15,2013-02-15 19:58:00,
2013-02-15 14:01:00,30.7,18.1,30.20,West,277,8.0,11.0,59,0.00,,,0.00,Wunderground v.1.15,2013-02-15 20:01:00,
2013-02-15 14:06:00,30.6,16.7,30.20,NW,312,10.0,13.0,56,0.00,,,0.00,Wunderground v.1.15,2013-02-15 20:06:00,
2013-02-15 14:08:00,30.6,16.3,30.20,WNW,295,10.0,13.0,55,0.00,,,0.00,Wunderground v.1.15,2013-02-15 20:08:00,
2013-02-15 14:12:00,30.2,16.8,30.19,WNW,295,10.0,10.0,57,0.00,,,0.00,Wunderground v.1.15,2013-02-15 20:12:00,
2013-02-15 14:14:00,30.2,16.0,30.19,West,266,10.0,10.0,55,0.00,,,0.00,Wunderground v.1.15,2013-02-15 20:14:00,
2013-02-15 14:18:00,30.3,15.2,30.19,NW,307,10.0,15.0,53,0.00,,,0.00,Wunderground v.1.15,2013-02-15 20:18:00,
2013-02-15 14:20:00,30.4,16.1,30.19,West,281,10.0,12.0,55,0.00,,,0.00,Wunderground v.1.15,2013-02-15 20:20:00,
2013-02-15 14:24:00,30.9,15.8,30.19,WNW,298,12.0,19.0,53,0.00,,,0.00,Wunderground v.1.15,2013-02-15 20:24:00,
2013-02-15 14:28:00,30.7,15.1,30.19,NW,308,13.0,19.0,52,0.00,,,0.00,Wunderground v.1.15,2013-02-15 20:28:00,
2013-02-15 14:33:00,30.6,15.0,30.19,NW,310,13.0,14.0,52,0.00,,,0.00,Wunderground v.1.15,2013-02-15 20:33:00,
2013-02-15 14:36:00,30.7,16.8,30.19,West,278,12.0,14.0,56,0.00,,,0.00,Wunderground v.1.15,2013-02-15 20:36:00,
2013-02-15 14:38:00,30.4,15.7,30.19,WNW,299,12.0,14.0,54,0.00,,,0.00,Wunderground v.1.15,2013-02-15 20:38:00,
2013-02-15 14:44:00,29.7,17.1,30.19,West,276,10.0,15.0,59,0.00,,,0.00,Wunderground v.1.15,2013-02-15 20:44:00,
2013-02-15 14:46:00,29.5,17.7,30.19,WNW,288,10.0,15.0,61,0.00,,,0.00,Wunderground v.1.15,2013-02-15 20:46:00,
2013-02-15 14:48:00,29.3,17.1,30.19,West,278,10.0,15.0,60,0.00,,,0.00,Wunderground v.1.15,2013-02-15 20:48:00,
2013-02-15 14:50:00,29.4,18.0,30.19,West,273,10.0,10.0,62,0.00,,,0.00,Wunderground v.1.15,2013-02-15 20:50:00,
2013-02-15 14:52:00,29.6,18.5,30.19,WNW,295,10.0,12.0,63,0.00,,,0.00,Wunderground v.1.15,2013-02-15 20:52:00,
2013-02-15 14:56:00,29.8,18.7,30.19,WNW,295,11.0,12.0,63,0.00,,,0.00,Wunderground v.1.15,2013-02-15 20:56:00,
2013-02-15 14:58:00,30.1,18.3,30.19,WNW,293,11.0,13.0,61,0.00,,,0.00,Wunderground v.1.15,2013-02-15 20:58:00,
2013-02-15 15:00:00,30.1,17.1,30.19,WNW,293,12.0,12.0,58,0.00,,,0.00,Wunderground v.1.15,2013-02-15 21:00:00,
2013-02-15 15:04:00,30.2,18.4,30.19,WNW,287,13.0,14.0,61,0.00,,,0.00,Wunderground v.1.15,2013-02-15 21:04:00,
2013-02-15 15:06:00,30.4,18.5,30.19,WNW,290,13.0,14.0,61,0.00,,,0.00,Wunderground v.1.15,2013-02-15 21:06:00,
2013-02-15 15:08:00,30.4,17.8,30.19,West,276,13.0,14.0,59,0.00,,,0.00,Wunderground v.1.15,2013-02-15 21:08:00,
2013-02-15 15:12:00,30.6,17.2,30.19,WNW,290,11.0,13.0,57,0.00,,,0.00,Wunderground v.1.15,2013-02-15 21:12:00,
2013-02-15 15:13:00,30.8,17.3,30.19,WNW,293,10.0,13.0,57,0.00,,,0.00,Wunderground v.1.15,2013-02-15 21:13:00,
2013-02-15 15:18:00,31.1,17.2,30.19,WNW,283,10.0,14.0,56,0.00,,,0.00,Wunderground v.1.15,2013-02-15 21:18:00,
2013-02-15 15:20:00,31.0,17.5,30.20,WSW,250,11.0,20.0,57,0.00,,,0.00,Wunderground v.1.15,2013-02-15 21:20:00,
2013-02-15 15:24:00,30.8,17.3,30.19,WNW,302,11.0,20.0,57,0.00,,,0.00,Wunderground v.1.15,2013-02-15 21:24:00,
2013-02-15 15:26:00,30.7,16.0,30.20,West,269,12.0,20.0,54,0.00,,,0.00,Wunderground v.1.15,2013-02-15 21:26:00,
2013-02-15 15:32:00,29.8,15.2,30.20,West,271,11.0,12.0,54,0.00,,,0.00,Wunderground v.1.15,2013-02-15 21:32:00,
2013-02-15 15:38:00,29.9,16.1,30.20,West,271,10.0,14.0,56,0.00,,,0.00,Wunderground v.1.15,2013-02-15 21:38:00,
2013-02-15 15:40:00,30.1,16.3,30.20,SW,226,10.0,10.0,56,0.00,,,0.00,Wunderground v.1.15,2013-02-15 21:40:00,
2013-02-15 15:42:00,30.2,15.5,30.20,West,260,10.0,10.0,54,0.00,,,0.00,Wunderground v.1.15,2013-02-15 21:42:00,
2013-02-15 15:46:00,30.5,17.1,30.20,West,281,10.0,12.0,57,0.00,,,0.00,Wunderground v.1.15,2013-02-15 21:46:00,
2013-02-15 15:48:00,30.7,17.3,30.20,WSW,256,10.0,12.0,57,0.00,,,0.00,Wunderground v.1.15,2013-02-15 21:48:00,
2013-02-15 15:51:00,30.4,16.6,30.20,WNW,295,11.0,17.0,56,0.00,,,0.00,Wunderground v.1.15,2013-02-15 21:51:00,
2013-02-15 15:56:00,30.2,16.8,30.20,West,281,12.0,17.0,57,0.00,,,0.00,Wunderground v.1.15,2013-02-15 21:56:00,
2013-02-15 15:58:00,30.4,17.8,30.20,West,277,12.0,17.0,59,0.00,,,0.00,Wunderground v.1.15,2013-02-15 21:58:00,
2013-02-15 16:02:00,30.0,17.0,30.20,WSW,252,11.0,12.0,58,0.00,,,0.00,Wunderground v.1.15,2013-02-15 22:02:00,
2013-02-15 16:06:00,29.7,17.1,30.20,WNW,288,11.0,18.0,59,0.00,,,0.00,Wunderground v.1.15,2013-02-15 22:06:00,
2013-02-15 16:08:00,29.5,16.1,30.20,West,276,12.0,18.0,57,0.00,,,0.00,Wunderground v.1.15,2013-02-15 22:08:00,
2013-02-15 16:11:00,29.6,18.2,30.20,WNW,298,12.0,16.0,62,0.00,,,0.00,Wunderground v.1.15,2013-02-15 22:11:00,
2013-02-15 16:16:00,29.2,17.8,30.20,WNW,300,13.0,16.0,62,0.00,,,0.00,Wunderground v.1.15,2013-02-15 22:16:00,
2013-02-15 16:20:00,29.2,17.4,30.20,WNW,299,14.0,14.0,61,0.00,,,0.00,Wunderground v.1.15,2013-02-15 22:20:00,
2013-02-15 16:22:00,29.2,17.8,30.20,NW,304,14.0,15.0,62,0.00,,,0.00,Wunderground v.1.15,2013-02-15 22:22:00,
2013-02-15 16:26:00,29.0,17.2,30.20,WNW,288,13.0,18.0,61,0.00,,,0.00,Wunderground v.1.15,2013-02-15 22:26:00,
2013-02-15 16:28:00,28.9,17.5,30.20,WNW,290,13.0,18.0,62,0.00,,,0.00,Wunderground v.1.15,2013-02-15 22:28:00,
2013-02-15 16:29:00,28.8,16.6,30.20,West,273,13.0,14.0,60,0.00,,,0.00,Wunderground v.1.15,2013-02-15 22:29:00,
2013-02-15 16:34:00,28.6,16.5,30.20,WNW,295,14.0,15.0,60,0.00,,,0.00,Wunderground v.1.15,2013-02-15 22:34:00,
2013-02-15 16:36:00,28.5,16.7,30.20,West,259,15.0,15.0,61,0.00,,,0.00,Wunderground v.1.15,2013-02-15 22:36:00,
2013-02-15 16:42:00,28.4,17.8,30.21,WNW,301,15.0,21.0,64,0.00,,,0.00,Wunderground v.1.15,2013-02-15 22:42:00,
2013-02-15 16:44:00,28.3,17.3,30.21,WNW,297,15.0,21.0,63,0.00,,,0.00,Wunderground v.1.15,2013-02-15 22:44:00,
2013-02-15 16:46:00,28.3,16.9,30.21,NW,316,14.0,21.0,62,0.00,,,0.00,Wunderground v.1.15,2013-02-15 22:46:00,
2013-02-15 16:50:00,28.2,16.8,30.21,WNW,288,15.0,16.0,62,0.00,,,0.00,Wunderground v.1.15,2013-02-15 22:50:00,
2013-02-15 16:54:00,28.1,17.1,30.21,WNW,285,14.0,17.0,63,0.00,,,0.00,Wunderground v.1.15,2013-02-15 22:54:00,
2013-02-15 16:56:00,28.1,17.5,30.21,NW,307,14.0,17.0,64,0.00,,,0.00,Wunderground v.1.15,2013-02-15 22:56:00,
2013-02-15 16:59:00,28.1,18.2,30.21,WNW,297,13.0,19.0,66,0.00,,,0.00,Wunderground v.1.15,2013-02-15 22:59:00,
2013-02-15 17:06:00,27.8,17.9,30.21,WNW,302,13.0,19.0,66,0.00,,,0.00,Wunderground v.1.15,2013-02-15 23:06:00,
2013-02-15 17:08:00,27.8,17.9,30.21,WNW,297,13.0,19.0,66,0.00,,,0.00,Wunderground v.1.15,2013-02-15 23:08:00,
2013-02-15 17:12:00,27.7,18.8,30.22,WSW,256,13.0,15.0,69,0.00,,,0.00,Wunderground v.1.15,2013-02-15 23:12:00,
2013-02-15 17:13:00,27.6,18.1,30.21,West,277,12.0,17.0,67,0.00,,,0.00,Wunderground v.1.15,2013-02-15 23:13:00,
2013-02-15 17:16:00,27.5,18.0,30.22,WNW,286,12.0,17.0,67,0.00,,,0.00,Wunderground v.1.15,2013-02-15 23:16:00,
2013-02-15 17:18:00,27.4,17.9,30.22,WNW,293,12.0,17.0,67,0.00,,,0.00,Wunderground v.1.15,2013-02-15 23:18:00,
2013-02-15 17:22:00,27.4,17.9,30.22,NW,304,13.0,13.0,67,0.00,,,0.00,Wunderground v.1.15,2013-02-15 23:22:00,
2013-02-15 17:26:00,27.3,18.1,30.22,WNW,293,13.0,18.0,68,0.00,,,0.00,Wunderground v.1.15,2013-02-15 23:26:00,
2013-02-15 17:28:00,27.2,18.7,30.22,WNW,297,14.0,20.0,70,0.00,,,0.00,Wunderground v.1.15,2013-02-15 23:28:00,
2013-02-15 17:33:00,27.0,18.5,30.22,West,280,16.0,17.0,70,0.00,,,0.00,Wunderground v.1.15,2013-02-15 23:33:00,
2013-02-15 17:38:00,26.9,18.4,30.22,WNW,288,15.0,17.0,70,0.00,,,0.00,Wunderground v.1.15,2013-02-15 23:38:00,
2013-02-15 17:40:00,26.9,18.7,30.22,WNW,288,15.0,15.0,71,0.00,,,0.00,Wunderground v.1.15,2013-02-15 23:40:00,
2013-02-15 17:41:00,26.8,18.3,30.22,WNW,295,15.0,17.0,70,0.00,,,0.00,Wunderground v.1.15,2013-02-15 23:41:00,
2013-02-15 17:44:00,26.7,18.2,30.22,WNW,295,14.0,17.0,70,0.00,,,0.00,Wunderground v.1.15,2013-02-15 23:44:00,
2013-02-15 17:46:00,26.6,18.5,30.22,WNW,301,14.0,17.0,71,0.00,,,0.00,Wunderground v.1.15,2013-02-15 23:46:00,
2013-02-15 17:50:00,26.4,18.3,30.22,West,269,13.0,13.0,71,0.00,,,0.00,Wunderground v.1.15,2013-02-15 23:50:00,
2013-02-15 17:52:00,26.3,18.5,30.22,West,281,12.0,18.0,72,0.00,,,0.00,Wunderground v.1.15,2013-02-15 23:52:00,
2013-02-15 17:54:00,26.2,18.4,30.22,West,259,11.0,18.0,72,0.00,,,0.00,Wunderground v.1.15,2013-02-15 23:54:00,
2013-02-15 17:56:00,26.1,18.6,30.23,WNW,297,11.0,18.0,73,0.00,,,0.00,Wunderground v.1.15,2013-02-15 23:56:00,
2013-02-15 17:58:00,25.9,18.1,30.22,WNW,301,12.0,18.0,72,0.00,,,0.00,Wunderground v.1.15,2013-02-15 23:58:00,
2013-02-15 18:02:00,25.7,18.2,30.22,WNW,298,12.0,12.0,73,0.00,,,0.00,Wunderground v.1.15,2013-02-16 00:02:00,
2013-02-15 18:06:00,25.6,18.1,30.23,WNW,293,12.0,13.0,73,0.00,,,0.00,Wunderground v.1.15,2013-02-16 00:06:00,
2013-02-15 18:10:00,25.5,18.0,30.23,WNW,297,12.0,12.0,73,0.00,,,0.00,Wunderground v.1.15,2013-02-16 00:10:00,
2013-02-15 18:12:00,25.4,18.3,30.23,WSW,248,11.0,12.0,74,0.00,,,0.00,Wunderground v.1.15,2013-02-16 00:12:00,
2013-02-15 18:14:00,25.4,18.3,30.23,West,278,11.0,12.0,74,0.00,,,0.00,Wunderground v.1.15,2013-02-16 00:14:00,
2013-02-15 18:16:00,25.4,18.6,30.23,WNW,297,11.0,13.0,75,0.00,,,0.00,Wunderground v.1.15,2013-02-16 00:16:00,
2013-02-15 18:18:00,25.3,18.2,30.22,WNW,293,11.0,13.0,74,0.00,,,0.00,Wunderground v.1.15,2013-02-16 00:18:00,
2013-02-15 18:20:00,25.3,18.5,30.23,WNW,297,11.0,15.0,75,0.00,,,0.00,Wunderground v.1.15,2013-02-16 00:20:00,
2013-02-15 18:24:00,25.3,18.2,30.23,WNW,297,12.0,15.0,74,0.00,,,0.00,Wunderground v.1.15,2013-02-16 00:24:00,
2013-02-15 18:28:00,25.3,17.9,30.23,WNW,284,12.0,17.0,73,0.00,,,0.00,Wunderground v.1.15,2013-02-16 00:28:00,
2013-02-15 18:32:00,25.3,18.2,30.23,WNW,285,13.0,13.0,74,0.00,,,0.00,Wunderground v.1.15,2013-02-16 00:32:00,
2013-02-15 18:34:00,25.3,18.2,30.23,WNW,297,13.0,13.0,74,0.00,,,0.00,Wunderground v.1.15,2013-02-16 00:34:00,
2013-02-15 18:38:00,25.2,18.1,30.23,WNW,293,12.0,17.0,74,0.00,,,0.00,Wunderground v.1.15,2013-02-16 00:38:00,
2013-02-15 18:39:00,25.2,17.8,30.23,WNW,286,12.0,12.0,73,0.00,,,0.00,Wunderground v.1.15,2013-02-16 00:39:00,
2013-02-15 18:42:00,25.2,18.1,30.23,WNW,288,12.0,12.0,74,0.00,,,0.00,Wunderground v.1.15,2013-02-16 00:42:00,
2013-02-15 18:44:00,25.2,18.1,30.23,NW,308,12.0,16.0,74,0.00,,,0.00,Wunderground v.1.15,2013-02-16 00:44:00,
2013-02-15 18:50:00,25.1,17.3,30.23,WNW,293,11.0,11.0,72,0.00,,,0.00,Wunderground v.1.15,2013-02-16 00:50:00,
2013-02-15 18:52:00,25.1,17.7,30.23,WNW,294,11.0,11.0,73,0.00,,,0.00,Wunderground v.1.15,2013-02-16 00:52:00,
2013-02-15 18:55:00,25.1,17.3,30.23,West,274,11.0,11.0,72,0.00,,,0.00,Wunderground v.1.15,2013-02-16 00:55:00,
2013-02-15 18:58:00,25.1,17.3,30.23,West,273,11.0,14.0,72,0.00,,,0.00,Wunderground v.1.15,2013-02-16 00:58:00,
2013-02-15 19:00:00,25.0,17.2,30.23,WNW,298,11.0,11.0,72,0.00,,,0.00,Wunderground v.1.15,2013-02-16 01:00:00,
2013-02-15 19:02:00,25.1,17.7,30.23,WNW,285,10.0,11.0,73,0.00,,,0.00,Wunderground v.1.15,2013-02-16 01:02:00,
2013-02-15 19:04:00,25.0,17.6,30.23,WNW,293,10.0,14.0,73,0.00,,,0.00,Wunderground v.1.15,2013-02-16 01:04:00,
2013-02-15 19:06:00,25.0,17.2,30.23,West,281,10.0,14.0,72,0.00,,,0.00,Wunderground v.1.15,2013-02-16 01:06:00,
2013-02-15 19:09:00,25.1,16.7,30.23,WNW,284,10.0,10.0,70,0.00,,,0.00,Wunderground v.1.15,2013-02-16 01:09:00,
2013-02-15 19:11:00,25.1,17.0,30.23,WNW,300,11.0,11.0,71,0.00,,,0.00,Wunderground v.1.15,2013-02-16 01:11:00,
2013-02-15 19:14:00,25.1,17.0,30.23,NW,310,11.0,11.0,71,0.00,,,0.00,Wunderground v.1.15,2013-02-16 01:14:00,
2013-02-15 19:20:00,24.9,17.1,30.23,WNW,295,11.0,11.0,72,0.00,,,0.00,Wunderground v.1.15,2013-02-16 01:20:00,
2013-02-15 19:24:00,24.8,17.1,30.23,WNW,297,11.0,14.0,72,0.00,,,0.00,Wunderground v.1.15,2013-02-16 01:24:00,
2013-02-15 19:30:00,24.7,16.0,30.23,NW,307,12.0,12.0,69,0.00,,,0.00,Wunderground v.1.15,2013-02-16 01:30:00,
2013-02-15 19:31:00,24.7,16.3,30.23,WNW,302,12.0,12.0,70,0.00,,,0.00,Wunderground v.1.15,2013-02-16 01:31:00,
2013-02-15 19:36:00,24.6,16.5,30.23,NW,304,12.0,12.0,71,0.00,,,0.00,Wunderground v.1.15,2013-02-16 01:36:00,
2013-02-15 19:38:00,24.6,16.5,30.23,WNW,299,12.0,13.0,71,0.00,,,0.00,Wunderground v.1.15,2013-02-16 01:38:00,
2013-02-15 19:42:00,24.6,16.5,30.23,WNW,295,11.0,12.0,71,0.00,,,0.00,Wunderground v.1.15,2013-02-16 01:42:00,
2013-02-15 19:46:00,24.4,16.3,30.23,WNW,297,10.0,12.0,71,0.00,,,0.00,Wunderground v.1.15,2013-02-16 01:46:00,
2013-02-15 19:48:00,24.4,16.3,30.23,WNW,297,10.0,12.0,71,0.00,,,0.00,Wunderground v.1.15,2013-02-16 01:48:00,
2013-02-15 19:49:00,24.4,16.0,30.23,WNW,302,10.0,11.0,70,0.00,,,0.00,Wunderground v.1.15,2013-02-16 01:49:00,
2013-02-15 19:51:00,24.4,16.0,30.23,WNW,298,10.0,14.0,70,0.00,,,0.00,Wunderground v.1.15,2013-02-16 01:51:00,
2013-02-15 19:54:00,24.4,15.7,30.23,WNW,297,10.0,14.0,69,0.00,,,0.00,Wunderground v.1.15,2013-02-16 01:54:00,
2013-02-15 19:56:00,24.3,15.9,30.23,WNW,298,10.0,14.0,70,0.00,,,0.00,Wunderground v.1.15,2013-02-16 01:56:00,
2013-02-15 20:02:00,24.2,16.5,30.23,WNW,300,9.0,9.0,72,0.00,,,0.00,Wunderground v.1.15,2013-02-16 02:02:00,
2013-02-15 20:06:00,24.0,16.3,30.23,WNW,300,8.0,10.0,72,0.00,,,0.00,Wunderground v.1.15,2013-02-16 02:06:00,
2013-02-15 20:08:00,24.0,16.3,30.23,WNW,297,8.0,10.0,72,0.00,,,0.00,Wunderground v.1.15,2013-02-16 02:08:00,
2013-02-15 20:12:00,23.9,16.2,30.23,WNW,288,7.0,9.0,72,0.00,,,0.00,Wunderground v.1.15,2013-02-16 02:12:00,
2013-02-15 20:14:00,23.9,16.2,30.23,WNW,297,8.0,9.0,72,0.00,,,0.00,Wunderground v.1.15,2013-02-16 02:14:00,
2013-02-15 20:15:00,23.9,16.5,30.23,NW,307,8.0,9.0,73,0.00,,,0.00,Wunderground v.1.15,2013-02-16 02:15:00,
2013-02-15 20:20:00,23.8,16.1,30.23,NW,309,8.0,9.0,72,0.00,,,0.00,Wunderground v.1.15,2013-02-16 02:20:00,
2013-02-15 20:22:00,23.8,15.8,30.23,NW,317,8.0,9.0,71,0.00,,,0.00,Wunderground v.1.15,2013-02-16 02:22:00,
2013-02-15 20:24:00,23.8,16.1,30.23,WNW,295,8.0,9.0,72,0.00,,,0.00,Wunderground v.1.15,2013-02-16 02:24:00,
2013-02-15 20:30:00,23.8,15.4,30.23,NNW,333,9.0,9.0,70,0.00,,,0.00,Wunderground v.1.15,2013-02-16 02:30:00,
2013-02-15 20:32:00,23.8,15.4,30.23,NW,313,9.0,9.0,70,0.00,,,0.00,Wunderground v.1.15,2013-02-16 02:32:00,
2013-02-15 20:33:00,23.8,15.4,30.23,NW,311,9.0,10.0,70,0.00,,,0.00,Wunderground v.1.15,2013-02-16 02:33:00,
2013-02-15 20:36:00,23.7,15.7,30.23,WNW,302,9.0,10.0,71,0.00,,,0.00,Wunderground v.1.15,2013-02-16 02:36:00,
2013-02-15 20:40:00,23.6,15.2,30.23,WNW,302,9.0,9.0,70,0.00,,,0.00,Wunderground v.1.15,2013-02-16 02:40:00,
2013-02-15 20:42:00,23.6,15.2,30.23,NW,309,9.0,9.0,70,0.00,,,0.00,Wunderground v.1.15,2013-02-16 02:42:00,
2013-02-15 20:44:00,23.5,15.1,30.23,NW,314,9.0,9.0,70,0.00,,,0.00,Wunderground v.1.15,2013-02-16 02:44:00,
2013-02-15 20:46:00,23.5,15.5,30.23,NW,309,8.0,10.0,71,0.00,,,0.00,Wunderground v.1.15,2013-02-16 02:46:00,
2013-02-15 20:48:00,23.4,15.1,30.23,NW,316,8.0,10.0,70,0.00,,,0.00,Wunderground v.1.15,2013-02-16 02:48:00,
2013-02-15 20:49:00,23.4,15.7,30.23,NW,307,8.0,8.0,72,0.00,,,0.00,Wunderground v.1.15,2013-02-16 02:49:00,
2013-02-15 20:56:00,23.0,15.0,30.23,West,281,9.0,13.0,71,0.00,,,0.00,Wunderground v.1.15,2013-02-16 02:56:00,
2013-02-15 20:58:00,23.0,15.0,30.23,NNW,330,9.0,13.0,71,0.00,,,0.00,Wunderground v.1.15,2013-02-16 02:58:00,
2013-02-15 21:02:00,22.8,14.8,30.23,NW,320,10.0,10.0,71,0.00,,,0.00,Wunderground v.1.15,2013-02-16 03:02:00,
2013-02-15 21:04:00,22.7,14.7,30.23,WNW,302,10.0,12.0,71,0.00,,,0.00,Wunderground v.1.15,2013-02-16 03:04:00,
2013-02-15 21:08:00,22.4,14.7,30.23,NW,323,9.0,12.0,72,0.00,,,0.00,Wunderground v.1.15,2013-02-16 03:08:00,
2013-02-15 21:10:00,22.3,14.3,30.23,NW,304,9.0,14.0,71,0.00,,,0.00,Wunderground v.1.15,2013-02-16 03:10:00,
2013-02-15 21:16:00,22.3,13.7,30.23,NW,309,11.0,14.0,69,0.00,,,0.00,Wunderground v.1.15,2013-02-16 03:16:00,
2013-02-15 21:18:00,22.2,13.9,30.23,NNW,331,12.0,14.0,70,0.00,,,0.00,Wunderground v.1.15,2013-02-16 03:18:00,
2013-02-15 21:24:00,21.9,13.6,30.23,NW,311,11.0,15.0,70,0.00,,,0.00,Wunderground v.1.15,2013-02-16 03:24:00,
2013-02-15 21:26:00,21.9,13.6,30.23,NNW,346,11.0,15.0,70,0.00,,,0.00,Wunderground v.1.15,2013-02-16 03:26:00,
2013-02-15 21:30:00,21.8,13.8,30.23,NNW,338,12.0,12.0,71,0.00,,,0.00,Wunderground v.1.15,2013-02-16 03:30:00,
2013-02-15 21:32:00,21.8,13.8,30.24,NW,317,12.0,12.0,71,0.00,,,0.00,Wunderground v.1.15,2013-02-16 03:32:00,
2013-02-15 21:34:00,21.7,13.7,30.23,NW,313,12.0,12.0,71,0.00,,,0.00,Wunderground v.1.15,2013-02-16 03:34:00,
2013-02-15 21:38:00,21.7,14.1,30.24,NW,307,11.0,12.0,72,0.00,,,0.00,Wunderground v.1.15,2013-02-16 03:38:00,
2013-02-15 21:40:00,21.7,14.1,30.23,NW,315,11.0,11.0,72,0.00,,,0.00,Wunderground v.1.15,2013-02-16 03:40:00,
2013-02-15 21:42:00,21.6,13.6,30.23,NW,315,11.0,13.0,71,0.00,,,0.00,Wunderground v.1.15,2013-02-16 03:42:00,
2013-02-15 21:44:00,21.6,13.6,30.24,NW,304,11.0,15.0,71,0.00,,,0.00,Wunderground v.1.15,2013-02-16 03:44:00,
2013-02-15 21:48:00,21.5,13.5,30.23,NNW,338,11.0,15.0,71,0.00,,,0.00,Wunderground v.1.15,2013-02-16 03:48:00,
2013-02-15 21:52:00,21.4,13.1,30.23,WNW,302,12.0,14.0,70,0.00,,,0.00,Wunderground v.1.15,2013-02-16 03:52:00,
2013-02-15 21:55:00,21.3,13.0,30.23,WNW,298,12.0,15.0,70,0.00,,,0.00,Wunderground v.1.15,2013-02-16 03:55:00,
2013-02-15 21:58:00,21.3,13.4,30.23,North,351,12.0,15.0,71,0.00,,,0.00,Wunderground v.1.15,2013-02-16 03:58:00,
2013-02-15 22:00:00,21.2,13.3,30.23,WNW,297,12.0,16.0,71,0.00,,,0.00,Wunderground v.1.15,2013-02-16 04:00:00,
2013-02-15 22:04:00,21.1,13.2,30.23,NW,320,11.0,16.0,71,0.00,,,0.00,Wunderground v.1.15,2013-02-16 04:04:00,
2013-02-15 22:08:00,21.0,13.4,30.24,NW,318,10.0,16.0,72,0.00,,,0.00,Wunderground v.1.15,2013-02-16 04:08:00,
2013-02-15 22:10:00,21.0,13.4,30.24,NW,304,11.0,13.0,72,0.00,,,0.00,Wunderground v.1.15,2013-02-16 04:10:00,
2013-02-15 22:12:00,21.0,13.4,30.24,NW,309,11.0,13.0,72,0.00,,,0.00,Wunderground v.1.15,2013-02-16 04:12:00,
2013-02-15 22:13:00,21.0,13.7,30.24,NW,315,11.0,13.0,73,0.00,,,0.00,Wunderground v.1.15,2013-02-16 04:13:00,
2013-02-15 22:18:00,20.9,13.6,30.24,NW,307,11.0,13.0,73,0.00,,,0.00,Wunderground v.1.15,2013-02-16 04:18:00,
2013-02-15 22:20:00,20.9,13.6,30.24,NW,309,11.0,11.0,73,0.00,,,0.00,Wunderground v.1.15,2013-02-16 04:20:00,
2013-02-15 22:22:00,20.8,13.5,30.24,NW,304,10.0,11.0,73,0.00,,,0.00,Wunderground v.1.15,2013-02-16 04:22:00,
2013-02-15 22:24:00,20.8,13.8,30.24,NW,316,10.0,11.0,74,0.00,,,0.00,Wunderground v.1.15,2013-02-16 04:24:00,
2013-02-15 22:28:00,20.7,13.1,30.24,NNW,327,11.0,13.0,72,0.00,,,0.00,Wunderground v.1.15,2013-02-16 04:28:00,
2013-02-15 22:29:00,20.7,13.1,30.24,NNW,330,11.0,11.0,72,0.00,,,0.00,Wunderground v.1.15,2013-02-16 04:29:00,
2013-02-15 22:34:00,20.6,12.7,30.24,NNW,338,12.0,12.0,71,0.00,,,0.00,Wunderground v.1.15,2013-02-16 04:34:00,
2013-02-15 22:35:00,20.4,13.1,30.24,NW,323,11.0,12.0,73,0.00,,,0.00,Wunderground v.1.15,2013-02-16 04:35:00,
2013-02-15 22:38:00,20.4,13.1,30.24,NW,326,10.0,12.0,73,0.00,,,0.00,Wunderground v.1.15,2013-02-16 04:38:00,
2013-02-15 22:40:00,20.2,13.2,30.24,NNW,329,9.0,9.0,74,0.00,,,0.00,Wunderground v.1.15,2013-02-16 04:40:00,
2013-02-15 22:42:00,20.1,12.8,30.24,NNW,328,9.0,13.0,73,0.00,,,0.00,Wunderground v.1.15,2013-02-16 04:42:00,
2013-02-15 22:44:00,19.9,12.3,30.24,North,351,9.0,14.0,72,0.00,,,0.00,Wunderground v.1.15,2013-02-16 04:44:00,
2013-02-15 22:48:00,19.7,12.1,30.24,NNW,335,11.0,14.0,72,0.00,,,0.00,Wunderground v.1.15,2013-02-16 04:48:00,
2013-02-15 22:50:00,19.6,12.0,30.24,NW,324,10.0,10.0,72,0.00,,,0.00,Wunderground v.1.15,2013-02-16 04:50:00,
2013-02-15 22:52:00,19.5,12.3,30.24,NNE,28,11.0,12.0,73,0.00,,,0.00,Wunderground v.1.15,2013-02-16 04:52:00,
2013-02-15 22:56:00,19.5,11.6,30.24,NNW,333,11.0,12.0,71,0.00,,,0.00,Wunderground v.1.15,2013-02-16 04:56:00,
2013-02-15 22:58:00,19.5,11.6,30.24,NNW,338,11.0,12.0,71,0.00,,,0.00,Wunderground v.1.15,2013-02-16 04:58:00,
2013-02-15 23:00:00,19.4,11.5,30.24,NNW,331,12.0,12.0,71,0.00,,,0.00,Wunderground v.1.15,2013-02-16 05:00:00,
2013-02-15 23:02:00,19.3,11.7,30.24,NNW,342,12.0,12.0,72,0.00,,,0.00,Wunderground v.1.15,2013-02-16 05:02:00,
2013-02-15 23:08:00,19.1,11.2,30.24,NW,313,11.0,12.0,71,0.00,,,0.00,Wunderground v.1.15,2013-02-16 05:08:00,
2013-02-15 23:09:00,19.0,11.5,30.24,NW,322,11.0,11.0,72,0.00,,,0.00,Wunderground v.1.15,2013-02-16 05:09:00,
2013-02-15 23:14:00,19.0,11.5,30.24,NNW,328,11.0,13.0,72,0.00,,,0.00,Wunderground v.1.15,2013-02-16 05:14:00,
2013-02-15 23:15:00,18.9,11.7,30.24,NW,325,10.0,13.0,73,0.00,,,0.00,Wunderground v.1.15,2013-02-16 05:15:00,
2013-02-15 23:20:00,18.8,11.6,30.24,NW,316,9.0,9.0,73,0.00,,,0.00,Wunderground v.1.15,2013-02-16 05:20:00,
2013-02-15 23:22:00,18.7,11.5,30.24,NNW,346,9.0,9.0,73,0.00,,,0.00,Wunderground v.1.15,2013-02-16 05:22:00,
2013-02-15 23:23:00,18.7,11.8,30.24,NNW,328,8.0,9.0,74,0.00,,,0.00,Wunderground v.1.15,2013-02-16 05:23:00,
2013-02-15 23:28:00,18.6,11.4,30.24,NNW,330,8.0,10.0,73,0.00,,,0.00,Wunderground v.1.15,2013-02-16 05:28:00,
2013-02-15 23:29:00,18.6,11.1,30.24,NW,320,9.0,9.0,72,0.00,,,0.00,Wunderground v.1.15,2013-02-16 05:29:00,
2013-02-15 23:34:00,18.5,11.3,30.24,NNW,342,10.0,14.0,73,0.00,,,0.00,Wunderground v.1.15,2013-02-16 05:34:00,
2013-02-15 23:38:00,18.5,11.3,30.24,NW,323,10.0,14.0,73,0.00,,,0.00,Wunderground v.1.15,2013-02-16 05:38:00,
2013-02-15 23:40:00,18.4,10.9,30.24,NW,314,11.0,11.0,72,0.00,,,0.00,Wunderground v.1.15,2013-02-16 05:40:00,
2013-02-15 23:42:00,18.4,10.9,30.24,NNW,340,11.0,11.0,72,0.00,,,0.00,Wunderground v.1.15,2013-02-16 05:42:00,
2013-02-15 23:46:00,18.2,10.7,30.24,NW,323,12.0,12.0,72,0.00,,,0.00,Wunderground v.1.15,2013-02-16 05:46:00,
2013-02-15 23:48:00,18.2,10.7,30.24,NW,314,12.0,12.0,72,0.00,,,0.00,Wunderground v.1.15,2013-02-16 05:48:00,
2013-02-15 23:51:00,18.1,10.9,30.24,NW,317,12.0,12.0,73,0.00,,,0.00,Wunderground v.1.15,2013-02-16 05:51:00,
2013-02-15 23:54:00,18.0,10.8,30.24,NNW,329,12.0,12.0,73,0.00,,,0.00,Wunderground v.1.15,2013-02-16 05:54:00,
2013-02-15 23:56:00,17.9,11.0,30.24,NNW,340,12.0,12.0,74,0.00,,,0.00,Wunderground v.1.15,2013-02-16 05:56:00,